Time,TemperatureF,DewpointF,PressureIn,WindDirection,WindDirectionDegrees,WindSpeedMPH,WindSpeedGustMPH,Humidity,HourlyPrecipIn,Conditions,Clouds,dailyrainin,SoftwareType,DateUTC
2013-02-22 00:52:00,36.9,35.6,30.10,WNW,292,0.0,-999.0,95,-99.99,,,0.00,Acu-Link.com,2013-02-22 08:52:00,
2013-02-22 01:47:00,34.9,33.9,30.12,NW,315,0.0,-999.0,96,-99.99,,,0.00,Acu-Link.com,2013-02-22 09:47:00,
2013-02-22 16:39:00,59.7,43.0,30.10,NW,315,1.1,-999.0,54,-99.99,,,0.00,Acu-Link.com,2013-02-23 00:39:00,
2013-02-22 16:56:00,57.9,41.4,30.10,NNE,22,1.7,-999.0,54,-99.99,,,0.00,Acu-Link.com,2013-02-23 00:56:00,
2013-02-22 17:11:00,56.8,41.3,30.10,North,0,2.2,-999.0,56,-99.99,,,0.00,Acu-Link.com,2013-02-23 01:11:00,
2013-02-22 17:26:00,55.8,41.2,30.10,NNW,337,1.7,-999.0,58,-99.99,,,0.00,Acu-Link.com,2013-02-23 01:26:00,
2013-02-22 17:49:00,55.4,42.2,30.09,SSE,157,0.0,-999.0,61,-99.99,,,0.00,Acu-Link.com,2013-02-23 01:49:00,
2013-02-22 18:27:00,55.4,42.2,30.10,WSW,247,0.0,-999.0,61,-99.99,,,0.00,Acu-Link.com,2013-02-23 02:27:00,
2013-02-22 19:40:00,47.1,44.6,30.12,NW,315,1.7,-999.0,91,-99.99,,,0.00,Acu-Link.com,2013-02-23 03:40:00,
2013-02-22 19:55:00,46.8,44.9,30.13,ESE,112,0.0,-999.0,93,-99.99,,,0.00,Acu-Link.com,2013-02-23 03:55:00,
2013-02-22 20:20:00,46.6,45.5,30.13,SE,135,0.0,-999.0,96,-99.99,,,0.00,Acu-Link.com,2013-02-23 04:20:00,
2013-02-22 20:36:00,46.6,45.8,30.13,SE,135,0.0,-999.0,97,-99.99,,,0.00,Acu-Link.com,2013-02-23 04:36:00,
2013-02-22 20:55:00,46.2,45.4,30.11,East,90,0.0,-999.0,97,-99.99,,,0.00,Acu-Link.com,2013-02-23 04:55:00,
2013-02-22 21:16:00,46.8,46.3,30.10,NE,45,0.0,-999.0,98,-99.99,,,0.00,Acu-Link.com,2013-02-23 05:16:00,
2013-02-22 21:32:00,46.8,46.3,30.14,SSE,157,0.0,-999.0,98,-99.99,,,0.00,Acu-Link.com,2013-02-23 05:32:00,
2013-02-22 21:53:00,46.0,45.5,30.15,East,90,0.0,-999.0,98,-99.99,,,0.00,Acu-Link.com,2013-02-23 05:53:00,
2013-02-22 22:10:00,46.4,45.9,30.16,West,270,0.0,-999.0,98,-99.99,,,0.00,Acu-Link.com,2013-02-23 06:10:00,
2013-02-22 22:25:00,46.9,46.4,30.15,NE,45,0.0,-999.0,98,-99.99,,,0.00,Acu-Link.com,2013-02-23 06:25:00,
2013-02-22 22:40:00,47.1,46.6,30.15,NE,45,1.7,-999.0,98,-99.99,,,0.00,Acu-Link.com,2013-02-23 06:40:00,
2013-02-22 22:56:00,47.5,47.0,30.15,East,90,1.1,-999.0,98,-99.99,,,0.00,Acu-Link.com,2013-02-23 06:56:00,